sensor_id;sensor_type;location;lat;lon;timestamp;pressure;altitude;pressure_sealevel;temperature;humidity
17873;BME280;36318;42.620;23.338;2023-02-18T00:00:54;93662.88;;;4.32;87.95
17873;BME280;36318;42.620;23.338;2023-02-18T00:03:21;93668.44;;;4.23;87.38
17873;BME280;36318;42.620;23.338;2023-02-18T00:05:48;93681.09;;;4.09;91.03
17873;BME280;36318;42.620;23.338;2023-02-18T00:08:14;93678.28;;;3.96;91.41
17873;BME280;36318;42.620;23.338;2023-02-18T00:10:41;93674.25;;;3.91;93.43
17873;BME280;36318;42.620;23.338;2023-02-18T00:13:08;93663.78;;;3.77;96.12
17873;BME280;36318;42.620;23.338;2023-02-18T00:15:36;93667.44;;;3.71;98.19
17873;BME280;36318;42.620;23.338;2023-02-18T00:18:03;93655.72;;;3.66;98.19
17873;BME280;36318;42.620;23.338;2023-02-18T00:20:29;93655.59;;;3.69;96.00
17873;BME280;36318;42.620;23.338;2023-02-18T00:22:57;93652.88;;;3.72;95.97
17873;BME280;36318;42.620;23.338;2023-02-18T00:25:24;93650.19;;;3.75;97.14
17873;BME280;36318;42.620;23.338;2023-02-18T00:27:50;93644.63;;;3.46;100.00
17873;BME280;36318;42.620;23.338;2023-02-18T00:30:17;93632.25;;;3.36;99.88
17873;BME280;36318;42.620;23.338;2023-02-18T00:32:45;93629.28;;;3.26;100.00
17873;BME280;36318;42.620;23.338;2023-02-18T00:35:12;93625.47;;;3.16;100.00
17873;BME280;36318;42.620;23.338;2023-02-18T00:37:38;93623.81;;;3.15;100.00
17873;BME280;36318;42.620;23.338;2023-02-18T00:40:05;93624.78;;;3.13;100.00
17873;BME280;36318;42.620;23.338;2023-02-18T00:42:32;93611.19;;;3.11;100.00
17873;BME280;36318;42.620;23.338;2023-02-18T00:44:59;93622.16;;;2.94;100.00
17873;BME280;36318;42.620;23.338;2023-02-18T00:47:30;93620.38;;;2.96;100.00
17873;BME280;36318;42.620;23.338;2023-02-18T00:49:58;93634.16;;;2.93;100.00
17873;BME280;36318;42.620;23.338;2023-02-18T00:52:25;93623.59;;;2.81;100.00
17873;BME280;36318;42.620;23.338;2023-02-18T00:54:51;93637.88;;;2.86;100.00
17873;BME280;36318;42.620;23.338;2023-02-18T00:57:18;93628.31;;;2.90;100.00
17873;BME280;36318;42.620;23.338;2023-02-18T00:59:44;93637.03;;;2.86;100.00
17873;BME280;36318;42.620;23.338;2023-02-18T01:02:11;93633.38;;;2.91;100.00
17873;BME280;36318;42.620;23.338;2023-02-18T01:04:38;93619.06;;;3.06;100.00
17873;BME280;36318;42.620;23.338;2023-02-18T01:07:06;93633.66;;;3.24;100.00
17873;BME280;36318;42.620;23.338;2023-02-18T01:09:34;93625.81;;;3.27;100.00
17873;BME280;36318;42.620;23.338;2023-02-18T01:12:01;93627.50;;;3.47;100.00
17873;BME280;36318;42.620;23.338;2023-02-18T01:14:28;93621.88;;;3.39;100.00
17873;BME280;36318;42.620;23.338;2023-02-18T01:16:55;93620.41;;;3.33;100.00
17873;BME280;36318;42.620;23.338;2023-02-18T01:19:21;93626.22;;;3.18;100.00
17873;BME280;36318;42.620;23.338;2023-02-18T01:21:48;93621.03;;;3.20;100.00
17873;BME280;36318;42.620;23.338;2023-02-18T01:24:16;93620.91;;;3.41;100.00
17873;BME280;36318;42.620;23.338;2023-02-18T01:26:42;93623.56;;;3.58;99.10
17873;BME280;36318;42.620;23.338;2023-02-18T01:29:09;93615.91;;;3.76;96.93
17873;BME280;36318;42.620;23.338;2023-02-18T01:31:35;93621.34;;;3.70;97.45
17873;BME280;36318;42.620;23.338;2023-02-18T01:34:02;93614.88;;;3.80;96.37
17873;BME280;36318;42.620;23.338;2023-02-18T01:36:29;93613.28;;;3.77;96.52
17873;BME280;36318;42.620;23.338;2023-02-18T01:38:55;93607.34;;;3.94;95.02
17873;BME280;36318;42.620;23.338;2023-02-18T01:41:23;93599.38;;;4.00;94.11
17873;BME280;36318;42.620;23.338;2023-02-18T01:46:31;93612.22;;;4.00;93.62
17873;BME280;36318;42.620;23.338;2023-02-18T01:48:58;93604.50;;;4.00;92.75
17873;BME280;36318;42.620;23.338;2023-02-18T01:51:26;93616.28;;;4.04;92.35
17873;BME280;36318;42.620;23.338;2023-02-18T01:53:54;93618.84;;;4.04;90.94
17873;BME280;36318;42.620;23.338;2023-02-18T01:56:24;93624.59;;;4.09;90.75
17873;BME280;36318;42.620;23.338;2023-02-18T01:58:52;93623.50;;;3.96;93.39
17873;BME280;36318;42.620;23.338;2023-02-18T02:01:20;93625.22;;;3.59;96.46
17873;BME280;36318;42.620;23.338;2023-02-18T02:03:46;93645.44;;;3.47;98.60
17873;BME280;36318;42.620;23.338;2023-02-18T02:06:16;93647.28;;;3.25;100.00
17873;BME280;36318;42.620;23.338;2023-02-18T02:08:43;93636.25;;;3.04;100.00
17873;BME280;36318;42.620;23.338;2023-02-18T02:11:15;93638.56;;;2.90;100.00
17873;BME280;36318;42.620;23.338;2023-02-18T02:13:50;93639.03;;;2.79;100.00
17873;BME280;36318;42.620;23.338;2023-02-18T02:16:22;93625.66;;;2.73;100.00
17873;BME280;36318;42.620;23.338;2023-02-18T02:18:53;93614.19;;;2.61;100.00
17873;BME280;36318;42.620;23.338;2023-02-18T02:24:19;93605.84;;;2.36;100.00
17873;BME280;36318;42.620;23.338;2023-02-18T02:27:06;93598.03;;;2.59;100.00
17873;BME280;36318;42.620;23.338;2023-02-18T02:32:25;93593.13;;;3.87;96.79
17873;BME280;36318;42.620;23.338;2023-02-18T02:34:59;93607.28;;;3.77;98.11
17873;BME280;36318;42.620;23.338;2023-02-18T02:37:30;93601.91;;;3.45;100.00
17873;BME280;36318;42.620;23.338;2023-02-18T02:40:03;93599.41;;;3.25;100.00
17873;BME280;36318;42.620;23.338;2023-02-18T02:42:36;93603.00;;;3.03;100.00
17873;BME280;36318;42.620;23.338;2023-02-18T02:45:06;93601.03;;;2.89;100.00
17873;BME280;36318;42.620;23.338;2023-02-18T02:47:37;93609.03;;;2.81;100.00
17873;BME280;36318;42.620;23.338;2023-02-18T02:50:11;93595.19;;;2.65;100.00
17873;BME280;36318;42.620;23.338;2023-02-18T02:52:40;93594.41;;;2.65;100.00
17873;BME280;36318;42.620;23.338;2023-02-18T02:55:09;93583.03;;;3.09;100.00
17873;BME280;36318;42.620;23.338;2023-02-18T02:57:47;93577.72;;;3.87;96.56
17873;BME280;36318;42.620;23.338;2023-02-18T03:00:15;93574.81;;;3.94;94.20
17873;BME280;36318;42.620;23.338;2023-02-18T03:02:46;93587.19;;;3.86;95.12
17873;BME280;36318;42.620;23.338;2023-02-18T03:05:18;93574.84;;;3.76;95.95
17873;BME280;36318;42.620;23.338;2023-02-18T03:07:54;93592.97;;;3.73;96.13
17873;BME280;36318;42.620;23.338;2023-02-18T03:10:42;93594.13;;;3.47;100.00
17873;BME280;36318;42.620;23.338;2023-02-18T03:13:14;93608.28;;;3.37;100.00
17873;BME280;36318;42.620;23.338;2023-02-18T03:15:43;93610.75;;;3.20;100.00
17873;BME280;36318;42.620;23.338;2023-02-18T03:18:13;93619.06;;;3.06;100.00
17873;BME280;36318;42.620;23.338;2023-02-18T03:20:45;93635.16;;;2.89;100.00
17873;BME280;36318;42.620;23.338;2023-02-18T03:23:15;93631.16;;;2.64;100.00
17873;BME280;36318;42.620;23.338;2023-02-18T03:25:42;93625.38;;;2.59;100.00
17873;BME280;36318;42.620;23.338;2023-02-18T03:28:10;93617.81;;;2.56;100.00
17873;BME280;36318;42.620;23.338;2023-02-18T03:30:39;93623.91;;;2.53;100.00
17873;BME280;36318;42.620;23.338;2023-02-18T03:33:07;93618.59;;;2.58;100.00
17873;BME280;36318;42.620;23.338;2023-02-18T03:35:35;93628.56;;;2.84;100.00
17873;BME280;36318;42.620;23.338;2023-02-18T03:38:05;93634.19;;;3.12;100.00
17873;BME280;36318;42.620;23.338;2023-02-18T03:40:35;93653.03;;;3.11;100.00
17873;BME280;36318;42.620;23.338;2023-02-18T03:43:01;93647.81;;;2.94;100.00
17873;BME280;36318;42.620;23.338;2023-02-18T03:45:28;93647.69;;;2.77;100.00
17873;BME280;36318;42.620;23.338;2023-02-18T03:47:54;93653.38;;;2.83;100.00
17873;BME280;36318;42.620;23.338;2023-02-18T03:50:21;93655.75;;;2.88;100.00
17873;BME280;36318;42.620;23.338;2023-02-18T03:52:48;93674.53;;;2.88;100.00
17873;BME280;36318;42.620;23.338;2023-02-18T03:55:16;93683.03;;;2.69;100.00
17873;BME280;36318;42.620;23.338;2023-02-18T03:57:43;93674.13;;;2.57;100.00
17873;BME280;36318;42.620;23.338;2023-02-18T04:00:09;93666.66;;;2.73;100.00
17873;BME280;36318;42.620;23.338;2023-02-18T04:02:36;93655.25;;;2.80;100.00
17873;BME280;36318;42.620;23.338;2023-02-18T04:05:03;93647.97;;;2.89;100.00
17873;BME280;36318;42.620;23.338;2023-02-18T04:07:30;93634.31;;;3.09;100.00
17873;BME280;36318;42.620;23.338;2023-02-18T04:09:56;93635.19;;;3.28;100.00
17873;BME280;36318;42.620;23.338;2023-02-18T04:12:24;93632.00;;;3.23;100.00
17873;BME280;36318;42.620;23.338;2023-02-18T04:14:51;93639.59;;;2.86;100.00
17873;BME280;36318;42.620;23.338;2023-02-18T04:17:17;93628.75;;;2.99;100.00
17873;BME280;36318;42.620;23.338;2023-02-18T04:19:44;93624.50;;;3.19;100.00
17873;BME280;36318;42.620;23.338;2023-02-18T04:22:11;93623.09;;;3.30;100.00
17873;BME280;36318;42.620;23.338;2023-02-18T04:24:37;93616.75;;;3.39;100.00
17873;BME280;36318;42.620;23.338;2023-02-18T04:27:04;93616.66;;;3.22;100.00
17873;BME280;36318;42.620;23.338;2023-02-18T04:29:32;93604.34;;;2.91;100.00
17873;BME280;36318;42.620;23.338;2023-02-18T04:31:58;93604.06;;;2.78;100.00
17873;BME280;36318;42.620;23.338;2023-02-18T04:34:25;93613.72;;;2.72;100.00
17873;BME280;36318;42.620;23.338;2023-02-18T04:36:51;93609.91;;;2.62;100.00
17873;BME280;36318;42.620;23.338;2023-02-18T04:39:18;93608.66;;;2.50;100.00
17873;BME280;36318;42.620;23.338;2023-02-18T04:41:44;93617.56;;;2.41;100.00
17873;BME280;36318;42.620;23.338;2023-02-18T04:44:11;93605.50;;;2.23;100.00
17873;BME280;36318;42.620;23.338;2023-02-18T04:46:39;93612.56;;;2.18;100.00
17873;BME280;36318;42.620;23.338;2023-02-18T04:49:05;93620.75;;;2.26;100.00
17873;BME280;36318;42.620;23.338;2023-02-18T04:51:32;93621.44;;;2.30;100.00
17873;BME280;36318;42.620;23.338;2023-02-18T04:53:59;93623.84;;;2.34;100.00
17873;BME280;36318;42.620;23.338;2023-02-18T04:56:26;93624.69;;;2.35;100.00
17873;BME280;36318;42.620;23.338;2023-02-18T04:58:52;93615.56;;;2.28;100.00
17873;BME280;36318;42.620;23.338;2023-02-18T05:01:19;93627.72;;;2.23;100.00
17873;BME280;36318;42.620;23.338;2023-02-18T05:03:47;93623.63;;;2.19;100.00
17873;BME280;36318;42.620;23.338;2023-02-18T05:06:13;93631.34;;;2.17;100.00
17873;BME280;36318;42.620;23.338;2023-02-18T05:08:40;93641.56;;;2.19;100.00
17873;BME280;36318;42.620;23.338;2023-02-18T05:11:07;93651.97;;;2.14;100.00
17873;BME280;36318;42.620;23.338;2023-02-18T05:13:34;93659.72;;;2.13;100.00
17873;BME280;36318;42.620;23.338;2023-02-18T05:16:00;93666.00;;;2.26;100.00
17873;BME280;36318;42.620;23.338;2023-02-18T05:18:27;93670.63;;;2.38;100.00
17873;BME280;36318;42.620;23.338;2023-02-18T05:20:55;93667.91;;;2.42;100.00
17873;BME280;36318;42.620;23.338;2023-02-18T05:23:22;93648.56;;;2.56;100.00
17873;BME280;36318;42.620;23.338;2023-02-18T05:25:50;93635.81;;;2.74;100.00
17873;BME280;36318;42.620;23.338;2023-02-18T05:28:16;93565.06;;;2.31;100.00
17873;BME280;36318;42.620;23.338;2023-02-18T05:30:43;93629.41;;;2.84;100.00
17873;BME280;36318;42.620;23.338;2023-02-18T05:33:10;93630.50;;;2.99;100.00
17873;BME280;36318;42.620;23.338;2023-02-18T05:35:36;93620.59;;;3.10;100.00
17873;BME280;36318;42.620;23.338;2023-02-18T05:38:04;93618.09;;;3.09;100.00
17873;BME280;36318;42.620;23.338;2023-02-18T05:40:31;93604.00;;;3.19;100.00
17873;BME280;36318;42.620;23.338;2023-02-18T05:42:57;93606.44;;;3.40;100.00
17873;BME280;36318;42.620;23.338;2023-02-18T05:45:24;93612.44;;;3.39;100.00
17873;BME280;36318;42.620;23.338;2023-02-18T05:47:50;93610.91;;;3.35;100.00
17873;BME280;36318;42.620;23.338;2023-02-18T05:50:17;93628.88;;;3.35;100.00
17873;BME280;36318;42.620;23.338;2023-02-18T05:52:44;93638.25;;;3.36;100.00
17873;BME280;36318;42.620;23.338;2023-02-18T05:55:12;93637.69;;;3.30;100.00
17873;BME280;36318;42.620;23.338;2023-02-18T05:57:38;93651.94;;;3.35;100.00
17873;BME280;36318;42.620;23.338;2023-02-18T06:00:05;93653.84;;;3.50;100.00
17873;BME280;36318;42.620;23.338;2023-02-18T06:02:33;93647.00;;;3.70;100.00
17873;BME280;36318;42.620;23.338;2023-02-18T06:05:00;93647.34;;;4.16;95.99
17873;BME280;36318;42.620;23.338;2023-02-18T06:07:26;93653.88;;;4.23;94.16
17873;BME280;36318;42.620;23.338;2023-02-18T06:09:53;93656.97;;;4.30;93.71
17873;BME280;36318;42.620;23.338;2023-02-18T06:12:21;93663.16;;;4.26;94.41
17873;BME280;36318;42.620;23.338;2023-02-18T06:14:47;93656.50;;;3.86;96.79
17873;BME280;36318;42.620;23.338;2023-02-18T06:17:14;93655.34;;;4.10;96.03
17873;BME280;36318;42.620;23.338;2023-02-18T06:19:43;93647.50;;;4.13;97.80
17873;BME280;36318;42.620;23.338;2023-02-18T06:22:09;93654.56;;;4.27;97.51
17873;BME280;36318;42.620;23.338;2023-02-18T06:24:36;93654.25;;;4.33;96.53
17873;BME280;36318;42.620;23.338;2023-02-18T06:27:03;93643.38;;;4.28;95.77
17873;BME280;36318;42.620;23.338;2023-02-18T06:29:31;93647.84;;;4.42;95.51
17873;BME280;36318;42.620;23.338;2023-02-18T06:31:57;93632.44;;;4.42;94.91
17873;BME280;36318;42.620;23.338;2023-02-18T06:34:24;93645.03;;;4.46;94.81
17873;BME280;36318;42.620;23.338;2023-02-18T06:36:51;93644.47;;;4.58;93.83
17873;BME280;36318;42.620;23.338;2023-02-18T06:39:18;93631.91;;;4.69;94.30
17873;BME280;36318;42.620;23.338;2023-02-18T06:41:44;93630.25;;;4.86;93.65
17873;BME280;36318;42.620;23.338;2023-02-18T06:44:11;93631.28;;;4.99;91.10
17873;BME280;36318;42.620;23.338;2023-02-18T06:46:40;93636.28;;;5.19;89.96
17873;BME280;36318;42.620;23.338;2023-02-18T06:49:07;93634.19;;;5.25;89.13
17873;BME280;36318;42.620;23.338;2023-02-18T06:51:34;93630.84;;;5.40;85.60
17873;BME280;36318;42.620;23.338;2023-02-18T06:54:01;93617.00;;;5.59;80.57
17873;BME280;36318;42.620;23.338;2023-02-18T06:56:27;93629.47;;;5.66;88.33
17873;BME280;36318;42.620;23.338;2023-02-18T06:58:54;93626.31;;;5.77;88.86
17873;BME280;36318;42.620;23.338;2023-02-18T07:01:20;93627.13;;;5.94;79.02
17873;BME280;36318;42.620;23.338;2023-02-18T07:03:48;93627.78;;;6.14;75.89
17873;BME280;36318;42.620;23.338;2023-02-18T07:06:15;93619.31;;;6.41;70.91
17873;BME280;36318;42.620;23.338;2023-02-18T07:08:41;93622.34;;;6.63;71.98
17873;BME280;36318;42.620;23.338;2023-02-18T07:11:08;93635.53;;;7.03;71.23
17873;BME280;36318;42.620;23.338;2023-02-18T07:13:35;93627.00;;;7.31;69.04
17873;BME280;36318;42.620;23.338;2023-02-18T07:16:01;93632.19;;;7.73;68.75
17873;BME280;36318;42.620;23.338;2023-02-18T07:18:28;93635.75;;;7.84;67.18
17873;BME280;36318;42.620;23.338;2023-02-18T07:20:56;93618.66;;;7.96;67.14
17873;BME280;36318;42.620;23.338;2023-02-18T07:23:22;93611.06;;;7.24;67.55
17873;BME280;36318;42.620;23.338;2023-02-18T07:25:49;93614.81;;;7.47;69.04
17873;BME280;36318;42.620;23.338;2023-02-18T07:28:15;93609.00;;;7.57;68.46
17873;BME280;36318;42.620;23.338;2023-02-18T07:30:42;93617.94;;;7.80;68.85
17873;BME280;36318;42.620;23.338;2023-02-18T07:33:09;93612.00;;;8.06;67.47
17873;BME280;36318;42.620;23.338;2023-02-18T07:35:35;93597.59;;;8.16;64.48
17873;BME280;36318;42.620;23.338;2023-02-18T07:38:03;93607.75;;;8.05;65.04
17873;BME280;36318;42.620;23.338;2023-02-18T07:40:30;93611.81;;;7.95;65.60
17873;BME280;36318;42.620;23.338;2023-02-18T07:42:56;93622.88;;;8.11;65.55
17873;BME280;36318;42.620;23.338;2023-02-18T07:45:23;93646.44;;;7.93;64.56
17873;BME280;36318;42.620;23.338;2023-02-18T07:47:50;93655.31;;;7.89;64.12
17873;BME280;36318;42.620;23.338;2023-02-18T07:50:16;93649.66;;;8.24;63.81
17873;BME280;36318;42.620;23.338;2023-02-18T07:52:43;93671.56;;;8.05;62.10
17873;BME280;36318;42.620;23.338;2023-02-18T07:55:11;93668.97;;;7.76;62.93
17873;BME280;36318;42.620;23.338;2023-02-18T07:57:38;93666.50;;;7.89;63.50
17873;BME280;36318;42.620;23.338;2023-02-18T08:00:18;93655.09;;;8.61;61.42
17873;BME280;36318;42.620;23.338;2023-02-18T08:02:45;93641.47;;;8.45;60.24
17873;BME280;36318;42.620;23.338;2023-02-18T08:05:12;93637.56;;;8.11;61.65
17873;BME280;36318;42.620;23.338;2023-02-18T08:07:38;93630.34;;;8.57;59.68
17873;BME280;36318;42.620;23.338;2023-02-18T08:10:06;93626.28;;;8.53;60.12
17873;BME280;36318;42.620;23.338;2023-02-18T08:15:01;93627.97;;;8.54;58.90
17873;BME280;36318;42.620;23.338;2023-02-18T08:17:28;93629.91;;;8.09;60.97
17873;BME280;36318;42.620;23.338;2023-02-18T08:19:55;93634.78;;;8.55;60.51
17873;BME280;36318;42.620;23.338;2023-02-18T08:22:21;93644.53;;;9.03;57.88
17873;BME280;36318;42.620;23.338;2023-02-18T08:24:48;93643.88;;;9.64;56.52
17873;BME280;36318;42.620;23.338;2023-02-18T08:27:14;93639.63;;;11.65;52.32
17873;BME280;36318;42.620;23.338;2023-02-18T08:29:41;93607.47;;;12.33;48.35
17873;BME280;36318;42.620;23.338;2023-02-18T08:32:09;93605.66;;;11.33;49.66
17873;BME280;36318;42.620;23.338;2023-02-18T08:34:35;93604.13;;;10.61;50.65
17873;BME280;36318;42.620;23.338;2023-02-18T08:37:02;93603.69;;;10.07;53.20
17873;BME280;36318;42.620;23.338;2023-02-18T08:39:32;93600.50;;;10.40;53.02
17873;BME280;36318;42.620;23.338;2023-02-18T08:41:59;93592.09;;;10.60;53.81
17873;BME280;36318;42.620;23.338;2023-02-18T08:44:25;93593.47;;;10.53;53.16
17873;BME280;36318;42.620;23.338;2023-02-18T08:46:52;93596.75;;;9.95;53.63
17873;BME280;36318;42.620;23.338;2023-02-18T08:49:20;93583.56;;;10.11;53.93
17873;BME280;36318;42.620;23.338;2023-02-18T08:51:48;93582.94;;;10.07;54.33
17873;BME280;36318;42.620;23.338;2023-02-18T08:54:15;93600.97;;;10.22;55.25
17873;BME280;36318;42.620;23.338;2023-02-18T08:56:41;93607.25;;;10.30;54.27
17873;BME280;36318;42.620;23.338;2023-02-18T08:59:08;93628.63;;;10.57;52.94
17873;BME280;36318;42.620;23.338;2023-02-18T09:01:35;93632.31;;;10.78;53.55
17873;BME280;36318;42.620;23.338;2023-02-18T09:04:01;93631.91;;;10.72;53.29
17873;BME280;36318;42.620;23.338;2023-02-18T09:06:29;93646.53;;;10.97;53.12
17873;BME280;36318;42.620;23.338;2023-02-18T09:08:56;93642.09;;;11.10;53.94
17873;BME280;36318;42.620;23.338;2023-02-18T09:11:23;93631.97;;;10.23;52.28
17873;BME280;36318;42.620;23.338;2023-02-18T09:13:50;93646.88;;;10.68;51.96
17873;BME280;36318;42.620;23.338;2023-02-18T09:16:17;93635.25;;;9.89;52.44
17873;BME280;36318;42.620;23.338;2023-02-18T09:18:44;93642.91;;;10.75;51.61
17873;BME280;36318;42.620;23.338;2023-02-18T09:21:11;93632.22;;;10.91;52.34
17873;BME280;36318;42.620;23.338;2023-02-18T09:23:40;93630.38;;;11.39;51.42
17873;BME280;36318;42.620;23.338;2023-02-18T09:26:07;93627.09;;;11.59;50.55
17873;BME280;36318;42.620;23.338;2023-02-18T09:28:35;93624.72;;;11.56;49.97
17873;BME280;36318;42.620;23.338;2023-02-18T09:31:05;93623.75;;;12.57;47.53
17873;BME280;36318;42.620;23.338;2023-02-18T09:33:33;93611.03;;;13.06;46.80
17873;BME280;36318;42.620;23.338;2023-02-18T09:36:00;93604.41;;;13.55;44.71
17873;BME280;36318;42.620;23.338;2023-02-18T09:38:26;93594.84;;;14.75;43.81
17873;BME280;36318;42.620;23.338;2023-02-18T09:40:54;93584.28;;;14.27;43.93
17873;BME280;36318;42.620;23.338;2023-02-18T09:43:23;93595.25;;;13.40;45.68
17873;BME280;36318;42.620;23.338;2023-02-18T09:45:51;93584.94;;;13.59;46.42
17873;BME280;36318;42.620;23.338;2023-02-18T09:48:19;93597.09;;;15.08;44.29
17873;BME280;36318;42.620;23.338;2023-02-18T09:50:50;93594.53;;;15.83;43.44
17873;BME280;36318;42.620;23.338;2023-02-18T09:53:17;93583.44;;;15.24;42.93
17873;BME280;36318;42.620;23.338;2023-02-18T09:55:44;93581.38;;;17.55;40.71
17873;BME280;36318;42.620;23.338;2023-02-18T09:58:13;93571.78;;;18.48;38.83
17873;BME280;36318;42.620;23.338;2023-02-18T10:00:41;93581.00;;;19.27;37.61
17873;BME280;36318;42.620;23.338;2023-02-18T10:03:10;93587.53;;;19.06;37.83
17873;BME280;36318;42.620;23.338;2023-02-18T10:05:39;93585.44;;;18.01;37.79
17873;BME280;36318;42.620;23.338;2023-02-18T10:08:13;93588.50;;;17.62;38.78
17873;BME280;36318;42.620;23.338;2023-02-18T10:10:43;93581.25;;;18.83;37.29
17873;BME280;36318;42.620;23.338;2023-02-18T10:13:13;93575.31;;;20.43;35.23
17873;BME280;36318;42.620;23.338;2023-02-18T10:15:40;93561.06;;;22.04;33.78
17873;BME280;36318;42.620;23.338;2023-02-18T10:18:13;93563.44;;;23.22;32.66
17873;BME280;36318;42.620;23.338;2023-02-18T10:20:43;93551.19;;;24.06;31.09
17873;BME280;36318;42.620;23.338;2023-02-18T10:23:09;93565.41;;;21.60;32.42
17873;BME280;36318;42.620;23.338;2023-02-18T10:25:39;93567.41;;;22.32;32.87
17873;BME280;36318;42.620;23.338;2023-02-18T10:28:07;93574.53;;;23.11;32.09
17873;BME280;36318;42.620;23.338;2023-02-18T10:30:37;93576.34;;;20.09;33.66
17873;BME280;36318;42.620;23.338;2023-02-18T10:33:10;93575.34;;;20.26;34.56
17873;BME280;36318;42.620;23.338;2023-02-18T10:35:42;93565.34;;;19.98;34.36
17873;BME280;36318;42.620;23.338;2023-02-18T10:38:14;93578.03;;;19.94;34.54
17873;BME280;36318;42.620;23.338;2023-02-18T10:40:45;93567.03;;;19.75;34.82
17873;BME280;36318;42.620;23.338;2023-02-18T10:43:18;93557.88;;;20.25;34.39
17873;BME280;36318;42.620;23.338;2023-02-18T10:45:50;93549.53;;;19.09;35.57
17873;BME280;36318;42.620;23.338;2023-02-18T10:51:08;93535.69;;;18.33;36.84
17873;BME280;36318;42.620;23.338;2023-02-18T10:53:38;93531.91;;;18.85;36.94
17873;BME280;36318;42.620;23.338;2023-02-18T10:56:07;93528.47;;;18.35;36.65
17873;BME280;36318;42.620;23.338;2023-02-18T10:58:35;93526.16;;;17.47;38.11
17873;BME280;36318;42.620;23.338;2023-02-18T11:01:03;93524.22;;;16.43;39.11
17873;BME280;36318;42.620;23.338;2023-02-18T11:03:39;93523.56;;;17.29;39.19
17873;BME280;36318;42.620;23.338;2023-02-18T11:06:14;93527.88;;;16.59;38.83
17873;BME280;36318;42.620;23.338;2023-02-18T11:08:42;93516.22;;;15.90;40.20
17873;BME280;36318;42.620;23.338;2023-02-18T11:11:11;93523.88;;;16.10;41.09
17873;BME280;36318;42.620;23.338;2023-02-18T11:13:40;93530.13;;;16.00;40.89
17873;BME280;36318;42.620;23.338;2023-02-18T11:16:09;93519.13;;;15.60;41.22
17873;BME280;36318;42.620;23.338;2023-02-18T11:18:37;93525.25;;;14.83;42.62
17873;BME280;36318;42.620;23.338;2023-02-18T11:21:05;93520.88;;;14.84;42.70
17873;BME280;36318;42.620;23.338;2023-02-18T11:23:45;93506.78;;;15.23;41.70
17873;BME280;36318;42.620;23.338;2023-02-18T11:26:12;93509.84;;;14.90;42.57
17873;BME280;36318;42.620;23.338;2023-02-18T11:28:41;93510.34;;;14.26;42.73
17873;BME280;36318;42.620;23.338;2023-02-18T11:31:16;93494.66;;;14.26;42.53
17873;BME280;36318;42.620;23.338;2023-02-18T11:33:46;93493.56;;;14.29;43.40
17873;BME280;36318;42.620;23.338;2023-02-18T11:36:18;93486.06;;;14.45;42.63
17873;BME280;36318;42.620;23.338;2023-02-18T11:38:49;93478.22;;;14.55;43.38
17873;BME280;36318;42.620;23.338;2023-02-18T11:41:16;93470.50;;;14.63;43.29
17873;BME280;36318;42.620;23.338;2023-02-18T11:43:45;93466.81;;;14.56;42.73
17873;BME280;36318;42.620;23.338;2023-02-18T11:46:15;93458.41;;;14.81;42.21
17873;BME280;36318;42.620;23.338;2023-02-18T11:48:42;93453.59;;;15.42;41.63
17873;BME280;36318;42.620;23.338;2023-02-18T11:51:13;93449.13;;;15.62;41.46
17873;BME280;36318;42.620;23.338;2023-02-18T11:53:50;93448.56;;;15.12;41.57
17873;BME280;36318;42.620;23.338;2023-02-18T11:56:18;93446.41;;;15.07;41.94
17873;BME280;36318;42.620;23.338;2023-02-18T11:58:46;93440.03;;;15.19;41.73
17873;BME280;36318;42.620;23.338;2023-02-18T12:01:17;93445.03;;;15.49;41.10
17873;BME280;36318;42.620;23.338;2023-02-18T12:03:51;93440.22;;;15.82;40.79
17873;BME280;36318;42.620;23.338;2023-02-18T12:06:19;93433.13;;;16.37;40.42
17873;BME280;36318;42.620;23.338;2023-02-18T12:08:50;93423.72;;;16.61;40.42
17873;BME280;36318;42.620;23.338;2023-02-18T12:11:20;93416.72;;;17.13;41.96
17873;BME280;36318;42.620;23.338;2023-02-18T12:13:49;93418.41;;;17.48;39.85
17873;BME280;36318;42.620;23.338;2023-02-18T12:16:20;93414.50;;;16.57;40.70
17873;BME280;36318;42.620;23.338;2023-02-18T12:18:53;93404.09;;;17.17;40.36
17873;BME280;36318;42.620;23.338;2023-02-18T12:21:29;93403.16;;;16.92;39.41
17873;BME280;36318;42.620;23.338;2023-02-18T12:24:03;93398.97;;;16.29;40.63
17873;BME280;36318;42.620;23.338;2023-02-18T12:26:38;93410.97;;;16.49;40.62
17873;BME280;36318;42.620;23.338;2023-02-18T12:29:26;93414.69;;;16.82;40.40
17873;BME280;36318;42.620;23.338;2023-02-18T12:32:03;93409.88;;;17.20;40.73
17873;BME280;36318;42.620;23.338;2023-02-18T12:34:35;93404.53;;;17.30;39.67
17873;BME280;36318;42.620;23.338;2023-02-18T12:37:08;93395.94;;;16.94;39.41
17873;BME280;36318;42.620;23.338;2023-02-18T12:39:46;93391.47;;;16.87;40.42
17873;BME280;36318;42.620;23.338;2023-02-18T12:42:26;93395.56;;;17.15;40.07
17873;BME280;36318;42.620;23.338;2023-02-18T12:44:59;93380.59;;;17.59;41.07
17873;BME280;36318;42.620;23.338;2023-02-18T12:47:32;93372.13;;;17.73;39.75
17873;BME280;36318;42.620;23.338;2023-02-18T12:50:15;93384.03;;;17.59;41.41
17873;BME280;36318;42.620;23.338;2023-02-18T12:52:47;93370.97;;;17.75;42.03
17873;BME280;36318;42.620;23.338;2023-02-18T12:55:20;93368.41;;;17.91;40.96
17873;BME280;36318;42.620;23.338;2023-02-18T12:58:01;93367.38;;;17.92;41.01
17873;BME280;36318;42.620;23.338;2023-02-18T13:06:02;93370.13;;;18.41;41.13
17873;BME280;36318;42.620;23.338;2023-02-18T13:08:34;93369.16;;;18.50;41.54
17873;BME280;36318;42.620;23.338;2023-02-18T13:11:11;93371.25;;;18.46;40.65
17873;BME280;36318;42.620;23.338;2023-02-18T13:13:41;93373.56;;;18.41;40.34
17873;BME280;36318;42.620;23.338;2023-02-18T13:16:12;93371.38;;;18.13;41.12
17873;BME280;36318;42.620;23.338;2023-02-18T13:18:39;93371.59;;;17.69;40.87